createdAt,value
2018-11-03T00:01:06.890Z,15.98
2018-11-03T00:03:35.277Z,16.73
2018-11-03T00:06:03.688Z,16.10
2018-11-03T00:08:32.094Z,13.60
2018-11-03T00:11:00.922Z,11.85
2018-11-03T00:13:29.040Z,15.90
2018-11-03T00:15:57.203Z,15.23
2018-11-03T00:18:25.504Z,14.30
2018-11-03T00:20:53.737Z,13.35
2018-11-03T00:23:21.968Z,13.32
2018-11-03T00:25:50.143Z,12.00
2018-11-03T00:28:18.308Z,11.85
2018-11-03T00:30:46.476Z,10.43
2018-11-03T00:33:14.645Z,10.13
2018-11-03T00:35:42.836Z,12.37
2018-11-03T00:38:11.045Z,12.23
2018-11-03T00:40:39.266Z,9.95
2018-11-03T00:43:07.376Z,9.78
2018-11-03T00:45:35.529Z,10.98
2018-11-03T00:48:03.713Z,10.65
2018-11-03T00:50:31.903Z,11.12
2018-11-03T00:53:00.083Z,10.13
2018-11-03T00:55:28.263Z,11.00
2018-11-03T00:57:56.456Z,10.32
2018-11-03T01:00:24.617Z,9.80
2018-11-03T01:02:52.781Z,11.28
2018-11-03T01:05:21.031Z,10.15
2018-11-03T01:07:49.234Z,11.00
2018-11-03T01:10:17.570Z,11.20
2018-11-03T01:12:45.727Z,11.63
2018-11-03T01:15:16.038Z,12.73
2018-11-03T01:17:44.384Z,10.68
2018-11-03T01:20:13.840Z,10.10
2018-11-03T01:22:42.018Z,10.80
2018-11-03T01:25:10.434Z,15.85
2018-11-03T01:27:38.624Z,19.42
2018-11-03T01:30:12.285Z,20.55
2018-11-03T01:32:40.664Z,22.80
2018-11-03T01:35:09.035Z,14.20
2018-11-03T01:37:47.322Z,14.28
2018-11-03T01:40:15.817Z,11.38
2018-11-03T01:42:44.029Z,15.72
2018-11-03T01:45:12.183Z,15.32
2018-11-03T01:47:40.391Z,11.45
2018-11-03T01:50:10.437Z,11.63
2018-11-03T01:52:39.364Z,12.50
2018-11-03T01:55:07.785Z,13.78
2018-11-03T01:57:36.357Z,12.58
2018-11-03T02:00:04.802Z,13.18
2018-11-03T02:02:33.029Z,11.45
2018-11-03T02:05:01.216Z,10.43
2018-11-03T02:07:29.414Z,12.70
2018-11-03T02:09:57.630Z,11.15
2018-11-03T02:12:25.801Z,10.45
2018-11-03T02:14:53.979Z,12.53
2018-11-03T02:17:22.141Z,9.75
2018-11-03T02:19:50.333Z,13.38
2018-11-03T02:22:18.532Z,10.45
2018-11-03T02:24:46.700Z,11.40
2018-11-03T02:27:14.908Z,9.85
2018-11-03T02:29:43.061Z,9.00
2018-11-03T02:32:11.230Z,10.35
2018-11-03T02:34:39.424Z,10.25
2018-11-03T02:37:07.613Z,9.55
2018-11-03T02:39:35.816Z,8.83
2018-11-03T02:42:04.041Z,11.03
2018-11-03T02:44:32.195Z,9.28
2018-11-03T02:47:00.369Z,8.98
2018-11-03T02:49:28.564Z,9.65
2018-11-03T02:51:56.753Z,9.18
2018-11-03T02:54:24.928Z,10.18
2018-11-03T02:56:53.081Z,10.03
2018-11-03T02:59:21.242Z,9.55
2018-11-03T03:01:49.420Z,8.30
2018-11-03T03:04:17.612Z,10.50
2018-11-03T03:06:45.793Z,9.00
2018-11-03T03:09:14.000Z,8.50
2018-11-03T03:11:42.161Z,9.30
2018-11-03T03:14:10.352Z,10.98
2018-11-03T03:16:38.557Z,9.58
2018-11-03T03:19:06.749Z,10.35
2018-11-03T03:21:34.897Z,9.30
2018-11-03T03:24:03.093Z,9.75
2018-11-03T03:26:31.271Z,10.00
2018-11-03T03:28:59.584Z,10.15
2018-11-03T03:31:27.680Z,10.60
2018-11-03T03:33:55.842Z,10.00
2018-11-03T03:36:24.013Z,10.28
2018-11-03T03:38:52.174Z,9.63
2018-11-03T03:41:20.425Z,9.48
2018-11-03T03:43:48.625Z,8.85
2018-11-03T03:46:16.788Z,10.40
2018-11-03T03:48:44.984Z,9.33
2018-11-03T03:51:13.145Z,9.35
2018-11-03T03:53:41.383Z,11.00
2018-11-03T03:56:09.556Z,10.15
2018-11-03T03:58:37.724Z,10.20
2018-11-03T04:01:05.898Z,10.23
2018-11-03T04:03:34.092Z,11.45
2018-11-03T04:06:02.284Z,11.25
2018-11-03T04:08:30.527Z,10.98
2018-11-03T04:10:58.721Z,11.55
2018-11-03T04:13:26.902Z,10.05
2018-11-03T04:15:55.074Z,10.35
2018-11-03T04:18:23.253Z,11.53
2018-11-03T04:20:51.441Z,11.15
2018-11-03T04:23:19.612Z,12.95
2018-11-03T04:25:47.783Z,13.98
2018-11-03T04:28:15.936Z,11.80
2018-11-03T04:30:44.120Z,10.72
2018-11-03T04:33:12.302Z,12.90
2018-11-03T04:35:40.493Z,10.25
2018-11-03T04:38:08.668Z,11.45
2018-11-03T04:40:36.823Z,10.65
2018-11-03T04:43:05.002Z,11.05
2018-11-03T04:45:33.279Z,10.72
2018-11-03T04:48:01.392Z,10.23
2018-11-03T04:50:29.556Z,10.80
2018-11-03T04:52:57.753Z,11.45
2018-11-03T04:55:25.958Z,10.50
2018-11-03T04:57:54.085Z,10.35
2018-11-03T05:00:22.269Z,12.80
2018-11-03T05:02:50.466Z,10.80
2018-11-03T05:05:18.597Z,10.40
2018-11-03T05:07:46.777Z,12.58
2018-11-03T05:10:15.020Z,10.03
2018-11-03T05:12:43.109Z,9.25
2018-11-03T05:15:11.284Z,10.03
2018-11-03T05:17:39.516Z,10.15
2018-11-03T05:20:07.730Z,10.25
2018-11-03T05:22:35.898Z,10.15
2018-11-03T05:25:04.150Z,11.78
2018-11-03T05:27:32.264Z,10.72
2018-11-03T05:30:00.458Z,10.53
2018-11-03T05:32:28.716Z,10.38
2018-11-03T05:34:56.860Z,10.28
2018-11-03T05:37:25.039Z,10.95
2018-11-03T05:39:53.211Z,10.18
2018-11-03T05:42:21.424Z,10.05
2018-11-03T05:44:49.670Z,11.03
2018-11-03T05:47:17.849Z,10.32
2018-11-03T05:49:46.030Z,9.95
2018-11-03T05:52:14.248Z,11.43
2018-11-03T05:54:42.434Z,10.25
2018-11-03T05:57:11.430Z,11.25
2018-11-03T05:59:39.595Z,11.38
2018-11-03T06:02:08.011Z,11.50
2018-11-03T06:04:36.323Z,12.65
2018-11-03T06:07:04.532Z,11.28
2018-11-03T06:09:34.761Z,12.50
2018-11-03T06:12:02.960Z,11.65
2018-11-03T06:14:31.170Z,11.10
2018-11-03T06:16:59.380Z,11.63
2018-11-03T06:19:27.587Z,13.90
2018-11-03T06:21:55.722Z,12.95
2018-11-03T06:24:23.882Z,13.15
2018-11-03T06:26:52.108Z,14.18
2018-11-03T06:29:20.281Z,13.50
2018-11-03T06:31:48.461Z,12.80
2018-11-03T06:34:16.703Z,11.73
2018-11-03T06:36:44.929Z,13.70
2018-11-03T06:39:13.201Z,17.00
2018-11-03T06:41:41.410Z,15.68
2018-11-03T06:44:09.636Z,14.10
2018-11-03T06:46:37.921Z,16.82
2018-11-03T06:49:11.305Z,15.00
2018-11-03T06:51:39.605Z,14.35
2018-11-03T06:54:07.853Z,14.75
2018-11-03T06:56:36.078Z,14.38
2018-11-03T06:59:04.364Z,13.43
2018-11-03T07:01:32.598Z,10.93
2018-11-03T07:04:00.865Z,14.18
2018-11-03T07:06:29.195Z,13.55
2018-11-03T07:08:57.438Z,15.83
2018-11-03T07:11:25.697Z,11.83
2018-11-03T07:13:54.097Z,12.85
2018-11-03T07:16:22.362Z,12.80
2018-11-03T07:18:50.583Z,12.73
2018-11-03T07:21:18.792Z,11.55
2018-11-03T07:23:47.005Z,14.20
2018-11-03T07:26:15.211Z,17.62
2018-11-03T07:28:43.476Z,10.82
2018-11-03T07:31:11.854Z,11.05
2018-11-03T07:33:40.152Z,16.87
2018-11-03T07:36:08.400Z,14.80
2018-11-03T07:38:36.610Z,12.82
2018-11-03T07:41:04.948Z,15.15
2018-11-03T07:43:33.131Z,14.03
2018-11-03T07:46:01.345Z,13.30
2018-11-03T07:48:29.567Z,10.53
2018-11-03T07:50:57.766Z,13.48
2018-11-03T07:53:26.033Z,12.58
2018-11-03T07:55:54.273Z,13.58
2018-11-03T07:58:22.517Z,14.28
2018-11-03T08:00:50.713Z,12.78
2018-11-03T08:03:19.032Z,13.03
2018-11-03T08:05:47.305Z,12.95
2018-11-03T08:08:15.553Z,11.38
2018-11-03T08:10:43.862Z,11.20
2018-11-03T08:13:12.082Z,11.43
2018-11-03T08:15:40.397Z,9.73
2018-11-03T08:18:08.525Z,10.70
2018-11-03T08:20:36.775Z,11.80
2018-11-03T08:23:05.009Z,11.33
2018-11-03T08:25:33.210Z,10.45
2018-11-03T08:28:01.393Z,11.20
2018-11-03T08:30:29.596Z,11.55
2018-11-03T08:32:57.823Z,13.08
2018-11-03T08:35:26.261Z,11.95
2018-11-03T08:37:54.498Z,10.85
2018-11-03T08:40:22.697Z,10.55
2018-11-03T08:42:50.884Z,10.80
2018-11-03T08:45:19.037Z,11.70
2018-11-03T08:47:47.245Z,10.53
2018-11-03T08:50:15.444Z,11.45
2018-11-03T08:52:43.650Z,10.10
2018-11-03T08:55:12.862Z,11.15
2018-11-03T08:57:41.306Z,10.15
2018-11-03T09:00:12.481Z,10.18
2018-11-03T09:02:41.062Z,10.85
2018-11-03T09:05:09.829Z,12.15
2018-11-03T09:07:38.518Z,9.70
2018-11-03T09:10:09.512Z,10.13
2018-11-03T09:12:37.794Z,11.22
2018-11-03T09:15:07.404Z,11.03
2018-11-03T09:17:36.282Z,11.40
2018-11-03T09:20:05.162Z,11.10
2018-11-03T09:22:33.412Z,12.63
2018-11-03T09:25:01.985Z,13.88
2018-11-03T09:27:30.227Z,12.18
2018-11-03T09:29:58.524Z,11.93
2018-11-03T09:32:26.817Z,12.35
2018-11-03T09:34:55.088Z,12.20
2018-11-03T09:37:23.314Z,12.20
2018-11-03T09:39:51.536Z,13.58
2018-11-03T09:42:20.210Z,12.70
2018-11-03T09:44:48.428Z,11.73
2018-11-03T09:47:16.689Z,13.68
2018-11-03T09:49:44.890Z,12.28
2018-11-03T09:52:13.089Z,13.30
2018-11-03T09:54:41.737Z,12.50
2018-11-03T09:57:09.959Z,12.80
2018-11-03T09:59:38.599Z,11.90
2018-11-03T10:02:06.836Z,11.85
2018-11-03T10:04:35.373Z,13.45
2018-11-03T10:07:03.602Z,12.60
2018-11-03T10:09:32.177Z,13.55
2018-11-03T10:12:00.409Z,11.70
2018-11-03T10:14:28.641Z,12.10
2018-11-03T10:16:56.938Z,12.80
2018-11-03T10:19:25.934Z,12.75
2018-11-03T10:21:54.629Z,13.03
2018-11-03T10:24:22.871Z,12.40
2018-11-03T10:26:51.105Z,12.50
2018-11-03T10:29:19.289Z,12.95
2018-11-03T10:31:47.486Z,13.20
2018-11-03T10:34:15.684Z,13.10
2018-11-03T10:36:43.907Z,13.43
2018-11-03T10:39:13.060Z,11.87
2018-11-03T10:41:42.008Z,12.50
2018-11-03T10:44:10.348Z,11.30
2018-11-03T10:46:38.630Z,10.83
2018-11-03T10:49:06.829Z,11.10
2018-11-03T10:51:35.001Z,11.67
2018-11-03T10:54:03.288Z,11.60
2018-11-03T10:56:31.486Z,10.70
2018-11-03T10:58:59.688Z,11.20
2018-11-03T11:02:30.754Z,10.90
2018-11-03T11:05:04.290Z,9.03
2018-11-03T11:07:37.955Z,9.20
2018-11-03T11:10:11.632Z,10.13
2018-11-03T11:12:42.150Z,9.63
2018-11-03T11:15:10.754Z,9.40
2018-11-03T11:17:38.979Z,9.60
2018-11-03T11:20:08.072Z,9.30
2018-11-03T11:22:36.253Z,8.00
2018-11-03T11:25:05.718Z,8.23
2018-11-03T11:27:33.814Z,8.60
2018-11-03T11:30:02.138Z,7.40
2018-11-03T11:32:30.394Z,7.57
2018-11-03T11:34:58.543Z,7.87
2018-11-03T11:37:26.782Z,8.00
2018-11-03T11:39:54.938Z,7.10
2018-11-03T11:42:23.145Z,5.93
2018-11-03T11:44:51.382Z,6.93
2018-11-03T11:47:19.672Z,6.00
2018-11-03T11:49:47.836Z,7.37
2018-11-03T11:52:16.030Z,5.87
2018-11-03T11:54:44.245Z,6.13
2018-11-03T11:57:12.393Z,5.70
2018-11-03T11:59:40.536Z,5.87
2018-11-03T12:02:08.787Z,5.73
2018-11-03T12:04:36.906Z,5.10
2018-11-03T12:07:05.091Z,5.70
2018-11-03T12:09:33.256Z,4.40
2018-11-03T12:12:01.415Z,4.43
2018-11-03T12:14:29.585Z,4.23
2018-11-03T12:16:57.749Z,4.70
2018-11-03T12:19:25.945Z,4.50
2018-11-03T12:21:54.134Z,4.90
2018-11-03T12:24:22.344Z,4.47
2018-11-03T12:26:50.541Z,4.80
2018-11-03T12:29:18.726Z,5.17
2018-11-03T12:31:46.959Z,4.07
2018-11-03T12:34:15.155Z,4.50
2018-11-03T12:36:43.381Z,4.67
2018-11-03T12:39:12.432Z,4.60
2018-11-03T12:41:40.680Z,4.60
2018-11-03T12:44:08.904Z,4.63
2018-11-03T12:46:37.107Z,4.43
2018-11-03T12:49:05.385Z,5.10
2018-11-03T12:51:33.707Z,5.53
2018-11-03T12:54:01.880Z,5.40
2018-11-03T12:56:30.117Z,6.37
2018-11-03T12:58:58.393Z,5.80
2018-11-03T13:01:26.639Z,5.40
2018-11-03T13:03:54.855Z,4.63
2018-11-03T13:06:23.168Z,5.20
2018-11-03T13:08:51.397Z,5.73
2018-11-03T13:11:19.809Z,5.23
2018-11-03T13:13:48.047Z,5.17
2018-11-03T13:16:16.256Z,5.00
2018-11-03T13:18:44.465Z,5.73
2018-11-03T13:21:12.673Z,5.63
2018-11-03T13:23:40.916Z,5.20
2018-11-03T13:26:09.158Z,5.07
2018-11-03T13:28:37.375Z,6.17
2018-11-03T13:31:05.596Z,7.30
2018-11-03T13:33:33.886Z,5.10
2018-11-03T13:36:02.167Z,5.60
2018-11-03T13:38:30.406Z,5.67
2018-11-03T13:40:58.722Z,5.50
2018-11-03T13:43:26.841Z,5.93
2018-11-03T13:45:55.112Z,6.50
2018-11-03T13:48:23.307Z,5.30
2018-11-03T13:50:51.455Z,6.30
2018-11-03T13:53:19.634Z,4.80
2018-11-03T13:55:48.004Z,8.90
2018-11-03T13:58:16.288Z,10.40
2018-11-03T14:00:44.476Z,9.70
2018-11-03T14:03:12.663Z,5.97
2018-11-03T14:05:40.956Z,5.73
2018-11-03T14:08:09.191Z,6.30
2018-11-03T14:10:37.420Z,5.60
2018-11-03T14:13:07.072Z,5.80
2018-11-03T14:15:35.278Z,4.03
2018-11-03T14:18:03.440Z,4.87
2018-11-03T14:20:31.686Z,4.70
2018-11-03T14:22:59.924Z,5.25
2018-11-03T14:25:28.116Z,4.45
2018-11-03T14:27:56.299Z,4.78
2018-11-03T14:30:24.466Z,4.92
2018-11-03T14:32:52.642Z,8.73
2018-11-03T14:35:20.952Z,5.78
2018-11-03T14:37:49.153Z,4.92
2018-11-03T14:40:17.472Z,4.33
2018-11-03T14:42:46.999Z,4.00
2018-11-03T14:45:16.225Z,4.90
2018-11-03T14:47:44.374Z,4.62
2018-11-03T14:50:12.524Z,3.98
2018-11-03T14:52:41.732Z,4.05
2018-11-03T14:55:10.529Z,4.40
2018-11-03T14:57:38.804Z,5.72
2018-11-03T15:00:15.200Z,5.95
2018-11-03T15:02:43.602Z,6.92
2018-11-03T15:05:12.323Z,4.25
2018-11-03T15:07:40.501Z,4.25
2018-11-03T15:10:09.586Z,4.60
2018-11-03T15:12:37.772Z,4.72
2018-11-03T15:15:07.398Z,4.80
2018-11-03T15:17:35.424Z,4.15
2018-11-03T15:20:03.781Z,3.80
2018-11-03T15:22:32.021Z,3.75
2018-11-03T15:25:00.304Z,3.83
2018-11-03T15:27:28.569Z,5.15
2018-11-03T15:29:56.746Z,5.97
2018-11-03T15:32:24.989Z,5.40
2018-11-03T15:34:53.219Z,4.50
2018-11-03T15:37:21.367Z,4.85
2018-11-03T15:39:49.570Z,3.42
2018-11-03T15:42:17.745Z,3.47
2018-11-03T15:44:45.929Z,3.65
2018-11-03T15:47:14.190Z,5.35
2018-11-03T15:49:43.859Z,4.47
2018-11-03T15:52:12.009Z,3.90
2018-11-03T15:54:40.193Z,4.42
2018-11-03T15:57:08.389Z,3.98
2018-11-03T15:59:36.548Z,4.10
2018-11-03T16:02:04.834Z,3.95
2018-11-03T16:04:33.013Z,4.33
2018-11-03T16:07:01.196Z,4.65
2018-11-03T16:09:31.345Z,3.85
2018-11-03T16:11:59.583Z,3.52
2018-11-03T16:14:27.773Z,3.22
2018-11-03T16:16:55.942Z,4.70
2018-11-03T16:19:24.234Z,4.15
2018-11-03T16:21:53.400Z,3.67
2018-11-03T16:24:21.586Z,3.72
2018-11-03T16:26:49.827Z,4.15
2018-11-03T16:29:18.041Z,5.47
2018-11-03T16:31:46.364Z,5.25
2018-11-03T16:34:14.587Z,4.40
2018-11-03T16:36:42.781Z,4.42
2018-11-03T16:39:11.474Z,4.00
2018-11-03T16:41:39.664Z,5.35
2018-11-03T16:44:07.868Z,4.90
2018-11-03T16:46:36.091Z,5.05
2018-11-03T16:49:05.002Z,4.35
2018-11-03T16:51:33.224Z,5.10
2018-11-03T16:54:01.509Z,5.17
2018-11-03T16:56:29.760Z,6.08
2018-11-03T16:58:58.042Z,5.35
2018-11-03T17:01:26.216Z,4.95
2018-11-03T17:03:54.398Z,4.55
2018-11-03T17:06:22.573Z,4.00
2018-11-03T17:08:50.790Z,4.80
2018-11-03T17:11:18.966Z,6.25
2018-11-03T17:13:47.158Z,8.23
2018-11-03T17:16:15.395Z,6.62
2018-11-03T17:18:43.671Z,7.08
2018-11-03T17:21:11.816Z,6.60
2018-11-03T17:23:40.109Z,5.33
2018-11-03T17:26:08.291Z,8.58
2018-11-03T17:28:36.466Z,9.65
2018-11-03T17:31:05.140Z,7.80
2018-11-03T17:33:33.949Z,6.40
2018-11-03T17:36:02.167Z,5.42
2018-11-03T17:38:30.560Z,7.47
2018-11-03T17:40:58.822Z,7.90
2018-11-03T17:43:27.038Z,17.17
2018-11-03T17:45:55.263Z,15.63
2018-11-03T17:48:23.463Z,22.48
2018-11-03T17:50:51.649Z,23.45
2018-11-03T17:53:19.945Z,26.33
2018-11-03T17:55:48.192Z,24.37
2018-11-03T17:58:16.364Z,26.05
2018-11-03T18:00:44.768Z,18.45
2018-11-03T18:03:13.406Z,16.02
2018-11-03T18:05:42.175Z,12.82
2018-11-03T18:08:10.377Z,14.23
2018-11-03T18:10:38.587Z,13.05
2018-11-03T18:13:06.804Z,12.55
2018-11-03T18:15:34.953Z,13.10
2018-11-03T18:18:03.156Z,14.80
2018-11-03T18:20:31.365Z,12.70
2018-11-03T18:22:59.546Z,9.88
2018-11-03T18:25:27.900Z,10.15
2018-11-03T18:27:56.200Z,9.33
2018-11-03T18:30:24.380Z,9.53
2018-11-03T18:32:52.643Z,9.00
2018-11-03T18:35:21.477Z,9.20
2018-11-03T18:37:49.756Z,8.25
2018-11-03T18:40:17.863Z,8.75
2018-11-03T18:42:47.051Z,8.85
2018-11-03T18:45:15.258Z,8.98
2018-11-03T18:47:43.445Z,9.03
2018-11-03T18:50:13.262Z,8.28
2018-11-03T18:52:41.620Z,7.60
2018-11-03T18:55:10.859Z,7.55
2018-11-03T18:57:39.657Z,8.85
2018-11-03T19:00:09.330Z,9.30
2018-11-03T19:02:37.721Z,9.08
2018-11-03T19:05:06.629Z,9.33
2018-11-03T19:07:34.914Z,7.25
2018-11-03T19:10:03.058Z,9.95
2018-11-03T19:12:31.336Z,11.20
2018-11-03T19:15:00.773Z,11.90
2018-11-03T19:17:29.069Z,11.40
2018-11-03T19:19:57.341Z,14.03
2018-11-03T19:22:26.170Z,13.68
2018-11-03T19:24:54.917Z,18.45
2018-11-03T19:27:23.590Z,19.17
2018-11-03T19:29:52.445Z,16.82
2018-11-03T19:32:21.765Z,15.35
2018-11-03T19:34:50.057Z,16.42
2018-11-03T19:37:19.525Z,15.68
2018-11-03T19:39:47.941Z,15.60
2018-11-03T19:42:16.260Z,11.18
2018-11-03T19:44:44.622Z,10.88
2018-11-03T19:47:12.911Z,12.68
2018-11-03T19:49:41.188Z,10.93
2018-11-03T19:52:09.440Z,8.88
2018-11-03T19:54:37.744Z,10.40
2018-11-03T19:57:06.178Z,11.22
2018-11-03T19:59:34.557Z,12.80
2018-11-03T20:02:02.944Z,13.95
2018-11-03T20:04:31.418Z,13.58
2018-11-03T20:06:59.732Z,13.45
2018-11-03T20:09:28.044Z,12.95
2018-11-03T20:11:56.409Z,12.40
2018-11-03T20:14:24.664Z,12.68
2018-11-03T20:16:53.013Z,11.90
2018-11-03T20:19:21.255Z,10.90
2018-11-03T20:21:49.715Z,11.15
2018-11-03T20:24:18.125Z,11.08
2018-11-03T20:26:46.343Z,9.90
2018-11-03T20:29:14.669Z,10.90
2018-11-03T20:31:42.993Z,11.25
2018-11-03T20:34:11.204Z,13.08
2018-11-03T20:36:39.743Z,11.30
2018-11-03T20:39:08.883Z,12.50
2018-11-03T20:41:37.636Z,12.60
2018-11-03T20:44:05.956Z,12.15
2018-11-03T20:46:34.324Z,12.00
2018-11-03T20:49:04.820Z,11.22
2018-11-03T20:51:33.292Z,11.33
2018-11-03T20:54:01.890Z,11.30
2018-11-03T20:56:30.041Z,11.22
2018-11-03T20:58:58.249Z,11.35
2018-11-03T21:01:26.440Z,11.97
2018-11-03T21:03:54.653Z,12.47
2018-11-03T21:06:22.840Z,10.75
2018-11-03T21:08:50.996Z,9.60
2018-11-03T21:11:19.219Z,12.93
2018-11-03T21:13:47.389Z,9.45
2018-11-03T21:16:15.648Z,10.70
2018-11-03T21:18:43.923Z,11.50
2018-11-03T21:21:12.011Z,11.70
2018-11-03T21:23:40.234Z,11.97
2018-11-03T21:26:09.950Z,11.90
2018-11-03T21:28:38.212Z,12.33
2018-11-03T21:31:07.080Z,10.55
2018-11-03T21:33:35.291Z,10.30
2018-11-03T21:36:03.477Z,11.00
2018-11-03T21:38:31.665Z,10.70
2018-11-03T21:40:59.899Z,8.95
2018-11-03T21:43:28.101Z,9.43
2018-11-03T21:45:56.309Z,10.95
2018-11-03T21:48:24.469Z,10.60
2018-11-03T21:50:52.663Z,8.35
2018-11-03T21:53:20.807Z,9.65
2018-11-03T21:55:49.116Z,10.65
2018-11-03T21:58:17.982Z,11.20
2018-11-03T22:00:46.344Z,10.80
2018-11-03T22:03:14.526Z,10.25
2018-11-03T22:05:42.836Z,9.45
2018-11-03T22:08:11.106Z,9.90
2018-11-03T22:10:39.370Z,11.68
2018-11-03T22:13:07.576Z,11.20
2018-11-03T22:15:35.975Z,10.65
2018-11-03T22:18:04.200Z,11.08
2018-11-03T22:20:32.652Z,10.32
2018-11-03T22:23:00.914Z,11.25
2018-11-03T22:25:29.129Z,12.53
2018-11-03T22:27:57.859Z,10.90
2018-11-03T22:30:25.962Z,11.50
2018-11-03T22:32:54.181Z,12.40
2018-11-03T22:35:22.953Z,10.63
2018-11-03T22:37:51.174Z,10.05
2018-11-03T22:40:19.388Z,10.78
2018-11-03T22:42:47.558Z,11.35
2018-11-03T22:45:15.778Z,11.10
2018-11-03T22:47:44.014Z,10.98
2018-11-03T22:50:12.175Z,10.63
2018-11-03T22:52:40.435Z,11.48
2018-11-03T22:55:08.635Z,11.73
2018-11-03T22:57:36.797Z,10.38
2018-11-03T23:00:06.330Z,10.53
2018-11-03T23:02:34.572Z,11.30
2018-11-03T23:05:02.844Z,11.03
2018-11-03T23:07:31.327Z,10.55
2018-11-03T23:09:59.695Z,11.55
2018-11-03T23:12:28.015Z,10.90
2018-11-03T23:14:56.168Z,10.03
2018-11-03T23:17:24.497Z,9.58
2018-11-03T23:19:53.164Z,9.78
2018-11-03T23:22:21.450Z,10.75
2018-11-03T23:24:49.669Z,10.40
2018-11-03T23:27:18.033Z,9.38
2018-11-03T23:29:46.321Z,11.75
2018-11-03T23:32:14.437Z,10.85
2018-11-03T23:34:42.676Z,13.35
2018-11-03T23:37:11.114Z,12.90
2018-11-03T23:39:39.409Z,13.18
2018-11-03T23:42:08.068Z,11.97
2018-11-03T23:44:36.430Z,10.05
2018-11-03T23:47:04.974Z,11.15
2018-11-03T23:49:33.198Z,11.85
2018-11-03T23:52:01.410Z,10.32
2018-11-03T23:54:29.611Z,9.78
2018-11-03T23:56:57.786Z,10.10
2018-11-03T23:59:26.021Z,11.68
